createdAt,value
2019-04-23T00:00:07.525Z,39.10
2019-04-23T00:02:50.701Z,39.00
2019-04-23T00:05:27.150Z,38.80
2019-04-23T00:08:11.307Z,38.70
2019-04-23T00:10:19.412Z,39.10
2019-04-23T00:15:20.197Z,39.40
2019-04-23T00:17:52.054Z,39.30
2019-04-23T00:22:51.693Z,39.50
2019-04-23T00:27:50.422Z,39.40
2019-04-23T00:30:27.592Z,39.60
2019-04-23T00:33:04.023Z,39.80
2019-04-23T00:35:18.064Z,39.70
2019-04-23T00:37:51.456Z,40.00
2019-04-23T00:40:30.308Z,40.10
2019-04-23T00:43:08.648Z,40.00
2019-04-23T00:45:24.542Z,40.20
2019-04-23T00:47:54.722Z,40.40
2019-04-23T00:50:28.359Z,40.50
2019-04-23T00:52:55.540Z,40.40
2019-04-23T00:55:21.209Z,40.30
2019-04-23T00:57:57.910Z,40.40
2019-04-23T01:00:45.972Z,40.30
2019-04-23T01:02:59.062Z,40.40
2019-04-23T01:05:30.287Z,40.70
2019-04-23T01:07:58.643Z,40.80
2019-04-23T01:10:36.309Z,40.80
2019-04-23T01:13:11.314Z,40.90
2019-04-23T01:18:10.913Z,41.20
2019-04-23T01:20:44.580Z,41.30
2019-04-23T01:22:50.752Z,41.30
2019-04-23T01:25:36.411Z,41.30
2019-04-23T01:28:23.203Z,41.40
2019-04-23T01:30:57.434Z,41.30
2019-04-23T01:33:31.337Z,41.20
2019-04-23T01:38:27.887Z,41.40
2019-04-23T01:43:26.737Z,41.60
2019-04-23T01:45:49.458Z,41.70
2019-04-23T01:48:29.991Z,41.80
2019-04-23T01:50:55.010Z,42.00
2019-04-23T01:53:26.802Z,41.90
2019-04-23T01:59:02.493Z,42.30
2019-04-23T02:00:53.368Z,42.50
2019-04-23T02:03:42.599Z,42.70
2019-04-23T02:08:28.357Z,42.90
2019-04-23T02:10:58.759Z,43.70
2019-04-23T02:13:33.867Z,43.20
2019-04-23T02:15:53.478Z,43.20
2019-04-23T02:18:45.606Z,43.30
2019-04-23T02:21:10.699Z,43.30
2019-04-23T02:26:05.923Z,43.20
2019-04-23T02:28:42.870Z,43.40
2019-04-23T02:31:21.324Z,43.60
2019-04-23T02:33:45.089Z,43.90
2019-04-23T02:41:26.768Z,44.40
2019-04-23T02:46:05.730Z,44.50
2019-04-23T02:49:00.010Z,44.60
2019-04-23T02:51:12.548Z,45.00
2019-04-23T02:56:12.300Z,45.60
2019-04-23T02:58:42.214Z,45.90
2019-04-23T03:01:22.382Z,45.70
2019-04-23T03:03:59.588Z,45.70
2019-04-23T03:08:46.361Z,46.00
2019-04-23T03:11:23.404Z,45.90
2019-04-23T03:16:38.004Z,46.50
2019-04-23T03:21:35.658Z,47.00
2019-04-23T03:39:18.001Z,47.80
2019-04-23T03:44:22.828Z,48.20
2019-04-23T03:46:49.958Z,48.50
2019-04-23T03:49:13.941Z,48.60
2019-04-23T03:51:51.747Z,49.10
2019-04-23T03:54:42.215Z,48.90
2019-04-23T03:57:17.043Z,48.80
2019-04-23T03:59:27.110Z,49.10
2019-04-23T04:02:03.469Z,49.80
2019-04-23T04:04:33.234Z,50.30
2019-04-23T04:07:15.611Z,50.20
2019-04-23T04:11:45.879Z,50.10
2019-04-23T04:17:07.400Z,50.20
2019-04-23T04:26:58.077Z,51.00
2019-04-23T04:29:27.552Z,51.00
2019-04-23T04:31:53.566Z,51.50
2019-04-23T04:34:53.361Z,51.50
2019-04-23T04:37:18.337Z,51.90
2019-04-23T04:39:49.761Z,52.10
2019-04-23T04:44:37.775Z,52.20
2019-04-23T04:46:50.485Z,52.70
2019-04-23T04:54:21.284Z,53.30
2019-04-23T04:59:26.265Z,53.40
2019-04-23T05:02:00.381Z,53.30
2019-04-23T05:04:26.745Z,53.10
2019-04-23T05:07:02.622Z,53.00
2019-04-23T05:09:37.610Z,53.60
2019-04-23T05:14:37.357Z,53.20
2019-04-23T05:21:58.687Z,53.30
2019-04-23T05:26:46.507Z,53.70
2019-04-23T05:29:14.928Z,53.40
2019-04-23T05:31:51.947Z,53.80
2019-04-23T05:34:23.452Z,53.70
2019-04-23T05:36:53.736Z,54.00
2019-04-23T05:39:29.115Z,54.50
2019-04-23T05:42:07.115Z,53.60
2019-04-23T05:44:29.708Z,54.20
2019-04-23T05:46:50.805Z,54.00
2019-04-23T05:49:26.187Z,55.10
2019-04-23T05:51:55.447Z,54.40
2019-04-23T05:54:27.705Z,53.90
2019-04-23T05:56:53.906Z,53.60
2019-04-23T05:59:25.806Z,54.10
2019-04-23T06:04:30.583Z,54.00
2019-04-23T06:09:25.148Z,53.40
2019-04-23T06:12:01.404Z,53.90
2019-04-23T06:14:25.038Z,54.30
2019-04-23T06:16:57.478Z,54.70
2019-04-23T06:19:21.552Z,54.40
2019-04-23T06:27:13.482Z,53.60
2019-04-23T06:29:41.496Z,53.30
2019-04-23T06:31:55.296Z,52.30
2019-04-23T06:36:58.931Z,52.30
2019-04-23T06:39:34.467Z,52.90
2019-04-23T06:44:35.854Z,52.90
2019-04-23T06:47:05.702Z,52.80
2019-04-23T06:49:37.786Z,53.00
2019-04-23T06:52:14.945Z,53.50
2019-04-23T06:59:30.747Z,53.00
2019-04-23T07:02:08.402Z,53.60
2019-04-23T07:09:31.166Z,54.90
2019-04-23T07:12:07.220Z,55.40
2019-04-23T07:14:44.169Z,55.20
2019-04-23T07:17:02.689Z,55.00
2019-04-23T07:19:37.446Z,54.30
2019-04-23T07:22:14.564Z,54.70
2019-04-23T07:24:34.564Z,55.20
2019-04-23T07:27:06.470Z,54.70
2019-04-23T07:29:47.793Z,55.00
2019-04-23T07:32:05.380Z,54.50
2019-04-23T07:34:39.791Z,54.90
2019-04-23T07:37:08.705Z,55.40
2019-04-23T07:39:58.829Z,55.30
2019-04-23T07:42:34.434Z,55.40
2019-04-23T07:44:58.082Z,55.00
2019-04-23T07:47:25.095Z,56.60
2019-04-23T07:50:09.463Z,56.40
2019-04-23T07:52:34.133Z,56.00
2019-04-23T07:55:02.590Z,56.50
2019-04-23T07:57:41.629Z,56.40
2019-04-23T08:00:02.515Z,55.50
2019-04-23T08:02:31.295Z,55.00
2019-04-23T08:07:29.743Z,55.70
2019-04-23T08:10:02.402Z,56.20
2019-04-23T08:12:31.483Z,56.50
2019-04-23T08:15:02.255Z,55.90
2019-04-23T08:17:28.106Z,55.60
2019-04-23T08:20:02.049Z,54.70
2019-04-23T08:25:19.222Z,55.50
2019-04-23T08:27:59.385Z,55.60
2019-04-23T08:30:09.388Z,55.80
2019-04-23T08:32:35.133Z,56.40
2019-04-23T08:35:28.489Z,55.20
2019-04-23T08:40:15.131Z,55.50
2019-04-23T08:48:07.629Z,55.20
2019-04-23T08:50:37.174Z,53.40
2019-04-23T08:53:17.699Z,54.60
2019-04-23T08:55:41.901Z,54.70
2019-04-23T08:58:06.167Z,54.70
2019-04-23T09:00:42.451Z,54.30
2019-04-23T09:03:11.122Z,55.00
2019-04-23T09:10:42.307Z,53.80
2019-04-23T09:13:34.813Z,54.50
2019-04-23T09:15:48.324Z,56.00
2019-04-23T09:23:13.338Z,55.40
2019-04-23T09:28:16.059Z,54.20
2019-04-23T09:30:49.585Z,54.00
2019-04-23T09:33:36.361Z,52.30
2019-04-23T09:36:06.851Z,53.50
2019-04-23T09:38:53.635Z,53.60
2019-04-23T09:41:24.275Z,53.90
2019-04-23T09:43:53.632Z,53.30
2019-04-23T09:46:23.533Z,52.20
2019-04-23T09:49:02.723Z,52.80
2019-04-23T09:54:00.658Z,51.80
2019-04-23T09:56:32.718Z,52.60
2019-04-23T09:59:07.321Z,53.20
2019-04-23T10:03:47.558Z,52.70
2019-04-23T10:06:12.404Z,52.60
2019-04-23T10:08:42.357Z,53.20
2019-04-23T10:11:07.500Z,51.60
2019-04-23T10:13:36.517Z,52.30
2019-04-23T10:16:06.588Z,52.50
2019-04-23T10:18:37.223Z,52.10
2019-04-23T10:21:07.589Z,52.80
2019-04-23T10:23:37.044Z,52.50
2019-04-23T10:26:06.164Z,52.50
2019-04-23T10:28:40.234Z,51.50
2019-04-23T10:31:09.111Z,50.90
2019-04-23T10:33:37.946Z,51.30
2019-04-23T10:36:12.872Z,50.80
2019-04-23T10:38:41.568Z,49.50
2019-04-23T10:41:07.375Z,50.20
2019-04-23T10:43:39.444Z,50.90
2019-04-23T10:46:42.959Z,50.00
2019-04-23T10:52:06.964Z,50.20
2019-04-23T10:57:00.171Z,49.00
2019-04-23T11:02:29.642Z,49.00
2019-04-23T11:07:20.537Z,50.00
2019-04-23T11:09:50.022Z,49.00
2019-04-23T11:12:32.480Z,49.50
2019-04-23T11:14:58.184Z,49.70
2019-04-23T11:17:30.362Z,49.30
2019-04-23T11:22:36.168Z,48.80
2019-04-23T11:24:59.798Z,48.80
2019-04-23T11:27:24.473Z,50.00
2019-04-23T11:30:00.174Z,49.70
2019-04-23T11:32:44.771Z,50.00
2019-04-23T11:37:37.621Z,50.40
2019-04-23T11:39:49.599Z,50.50
2019-04-23T11:44:56.086Z,49.30
2019-04-23T11:47:45.564Z,49.80
2019-04-23T11:49:58.191Z,49.80
2019-04-23T11:52:30.698Z,49.80
2019-04-23T11:54:52.793Z,49.60
2019-04-23T11:59:52.853Z,50.40
2019-04-23T12:02:41.761Z,50.80
2019-04-23T12:05:26.849Z,51.50
2019-04-23T12:07:50.286Z,51.40
2019-04-23T12:10:39.358Z,50.20
2019-04-23T12:13:03.904Z,49.20
2019-04-23T12:15:32.049Z,50.00
2019-04-23T12:18:05.343Z,49.90
2019-04-23T12:23:12.175Z,49.10
2019-04-23T12:25:32.903Z,49.50
2019-04-23T12:27:47.014Z,50.00
2019-04-23T12:33:06.974Z,50.70
2019-04-23T12:35:43.982Z,49.70
2019-04-23T12:38:08.834Z,49.80
2019-04-23T12:43:13.357Z,49.80
2019-04-23T12:45:39.905Z,49.90
2019-04-23T12:48:20.414Z,50.30
2019-04-23T12:50:48.733Z,49.30
2019-04-23T12:53:14.357Z,49.00
2019-04-23T12:55:43.694Z,48.70
2019-04-23T12:58:21.973Z,48.20
2019-04-23T13:00:44.320Z,48.40
2019-04-23T13:05:42.170Z,47.40
2019-04-23T13:10:45.869Z,44.60
2019-04-23T13:13:23.519Z,43.00
2019-04-23T13:18:20.774Z,43.40
2019-04-23T13:20:42.374Z,43.00
2019-04-23T13:28:21.170Z,42.70
2019-04-23T13:30:59.008Z,43.20
2019-04-23T13:38:34.927Z,41.60
2019-04-23T13:41:04.722Z,41.10
2019-04-23T13:43:40.529Z,41.40
2019-04-23T13:48:20.139Z,42.20
2019-04-23T13:50:59.230Z,41.10
2019-04-23T13:53:42.728Z,41.30
2019-04-23T13:55:53.035Z,41.60
2019-04-23T13:58:38.864Z,41.30
2019-04-23T14:03:39.383Z,41.40
2019-04-23T14:11:10.790Z,42.70
2019-04-23T14:13:46.071Z,42.60
2019-04-23T14:16:18.342Z,42.40
2019-04-23T14:21:14.093Z,42.60
2019-04-23T14:24:00.261Z,42.20
2019-04-23T14:26:29.665Z,42.80
2019-04-23T14:28:41.766Z,42.60
2019-04-23T14:33:48.012Z,42.00
2019-04-23T14:36:12.061Z,42.40
2019-04-23T14:41:32.246Z,43.00
2019-04-23T14:43:48.905Z,43.10
2019-04-23T14:46:35.311Z,44.10
2019-04-23T14:48:51.716Z,42.60
2019-04-23T14:51:32.166Z,43.90
2019-04-23T14:58:56.945Z,43.20
2019-04-23T15:01:27.279Z,43.70
2019-04-23T15:03:50.510Z,43.50
2019-04-23T15:09:00.677Z,42.90
2019-04-23T15:11:38.793Z,43.20
2019-04-23T15:13:55.275Z,42.40
2019-04-23T15:19:12.980Z,41.90
2019-04-23T15:21:47.063Z,42.10
2019-04-23T15:24:02.194Z,42.60
2019-04-23T15:27:29.605Z,42.90
2019-04-23T15:28:43.800Z,42.50
2019-04-23T15:31:32.988Z,42.90
2019-04-23T15:34:10.624Z,43.60
2019-04-23T15:39:11.624Z,43.00
2019-04-23T15:41:40.099Z,42.90
2019-04-23T15:44:13.629Z,43.50
2019-04-23T15:46:42.112Z,44.20
2019-04-23T15:51:35.451Z,44.50
2019-04-23T15:56:45.270Z,44.20
2019-04-23T16:01:40.338Z,44.40
2019-04-23T16:03:38.258Z,43.70
2019-04-23T16:06:10.332Z,43.80
2019-04-23T16:09:09.745Z,43.50
2019-04-23T16:19:13.721Z,43.00
2019-04-23T16:24:13.559Z,45.00
2019-04-23T16:26:50.183Z,44.80
2019-04-23T16:29:25.113Z,45.20
2019-04-23T16:31:41.306Z,45.10
2019-04-23T16:34:20.823Z,45.40
2019-04-23T16:39:10.776Z,45.90
2019-04-23T16:41:46.672Z,46.00
2019-04-23T16:44:20.013Z,45.50
2019-04-23T16:46:50.172Z,44.90
2019-04-23T16:49:17.827Z,45.30
2019-04-23T16:51:38.653Z,45.80
2019-04-23T16:54:19.078Z,47.20
2019-04-23T16:57:01.160Z,46.60
2019-04-23T17:06:53.515Z,46.10
2019-04-23T17:09:18.556Z,45.80
2019-04-23T17:11:48.408Z,46.50
2019-04-23T17:14:21.341Z,47.20
2019-04-23T17:19:18.780Z,48.70
2019-04-23T17:21:52.225Z,49.10
2019-04-23T17:26:46.174Z,50.10
2019-04-23T17:29:21.302Z,49.70
2019-04-23T17:32:04.088Z,49.80
2019-04-23T17:34:23.743Z,50.20
2019-04-23T17:36:55.906Z,50.00
2019-04-23T17:39:32.556Z,50.00
2019-04-23T17:47:13.784Z,50.70
2019-04-23T17:49:52.542Z,50.70
2019-04-23T17:54:51.794Z,51.70
2019-04-23T17:57:15.013Z,51.90
2019-04-23T18:00:11.951Z,52.80
2019-04-23T18:05:02.457Z,54.00
2019-04-23T18:07:37.727Z,54.50
2019-04-23T18:10:11.637Z,55.30
2019-04-23T18:14:59.565Z,55.70
2019-04-23T18:17:27.030Z,55.10
2019-04-23T18:22:46.986Z,56.20
2019-04-23T18:25:26.154Z,56.50
2019-04-23T18:30:51.096Z,56.90
2019-04-23T18:33:59.494Z,57.10
2019-04-23T18:35:44.581Z,57.00
2019-04-23T18:38:31.671Z,57.40
2019-04-23T18:41:02.397Z,57.40
2019-04-23T18:45:44.871Z,58.00
2019-04-23T18:53:40.643Z,58.00
2019-04-23T18:56:05.978Z,57.80
2019-04-23T18:58:35.128Z,57.80
2019-04-23T19:01:05.414Z,57.10
2019-04-23T19:11:40.408Z,58.50
2019-04-23T19:13:53.331Z,62.40
2019-04-23T19:16:25.337Z,62.00
2019-04-23T19:18:56.744Z,61.20
2019-04-23T19:21:45.660Z,62.20
2019-04-23T19:26:50.112Z,60.30
2019-04-23T19:28:56.148Z,59.50
2019-04-23T19:31:39.814Z,59.10
2019-04-23T19:34:14.221Z,61.50
2019-04-23T19:36:46.368Z,63.90
2019-04-23T19:39:11.861Z,63.90
2019-04-23T19:41:54.203Z,66.60
2019-04-23T19:44:01.205Z,65.10
2019-04-23T19:46:50.520Z,65.00
2019-04-23T19:49:09.679Z,68.40
2019-04-23T19:51:44.537Z,67.10
2019-04-23T19:56:47.135Z,66.80
2019-04-23T19:59:02.141Z,67.90
2019-04-23T20:01:39.424Z,66.70
2019-04-23T20:04:04.108Z,66.90
2019-04-23T20:06:58.694Z,68.00
2019-04-23T20:11:49.444Z,70.60
2019-04-23T20:14:29.171Z,70.80
2019-04-23T20:16:48.948Z,70.10
2019-04-23T20:19:23.928Z,71.60
2019-04-23T20:21:57.366Z,71.30
2019-04-23T20:26:59.865Z,71.20
2019-04-23T20:34:51.512Z,71.70
2019-04-23T20:37:13.549Z,72.20
2019-04-23T20:39:38.563Z,72.60
2019-04-23T20:49:42.836Z,74.70
2019-04-23T20:52:06.291Z,74.90
2019-04-23T20:54:51.246Z,75.10
2019-04-23T21:05:03.632Z,78.70
2019-04-23T21:07:46.059Z,78.50
2019-04-23T21:17:35.723Z,75.50
2019-04-23T21:20:10.238Z,76.10
2019-04-23T21:22:29.846Z,77.60
2019-04-23T21:25:16.997Z,78.50
2019-04-23T21:30:05.356Z,79.40
2019-04-23T21:45:31.286Z,81.50
2019-04-23T21:50:39.158Z,81.50
2019-04-23T21:55:36.514Z,81.40
2019-04-23T21:58:18.964Z,81.20
2019-04-23T22:00:36.321Z,80.90
2019-04-23T22:03:12.897Z,80.00
2019-04-23T22:05:35.559Z,79.90
2019-04-23T22:08:21.897Z,81.00
2019-04-23T22:10:31.927Z,82.00
2019-04-23T22:13:09.579Z,82.30
2019-04-23T22:15:34.457Z,82.40
2019-04-23T22:18:00.276Z,83.50
2019-04-23T22:20:38.332Z,82.50
2019-04-23T22:25:44.251Z,83.40
2019-04-23T22:27:58.157Z,84.20
2019-04-23T22:30:36.344Z,84.30
2019-04-23T22:33:19.547Z,85.10
2019-04-23T22:35:31.945Z,85.80
2019-04-23T22:38:22.676Z,86.40
2019-04-23T22:40:36.243Z,87.20
2019-04-23T22:45:40.208Z,86.70
2019-04-23T22:48:11.373Z,87.40
2019-04-23T22:50:38.511Z,88.10
2019-04-23T22:55:42.841Z,89.00
2019-04-23T23:00:34.271Z,89.20
2019-04-23T23:03:36.094Z,88.80
2019-04-23T23:08:30.894Z,90.00
2019-04-23T23:13:50.288Z,90.20
2019-04-23T23:16:01.571Z,90.20
2019-04-23T23:23:30.580Z,90.30
2019-04-23T23:26:12.343Z,90.40
2019-04-23T23:28:38.101Z,89.80
2019-04-23T23:33:33.761Z,90.70
2019-04-23T23:36:08.651Z,90.40
2019-04-23T23:43:29.982Z,90.70
2019-04-23T23:46:17.299Z,91.00
2019-04-23T23:48:36.016Z,91.20
2019-04-23T23:51:09.616Z,91.60
2019-04-23T23:53:50.505Z,91.70
2019-04-23T23:56:10.871Z,92.10
2019-04-23T23:58:48.148Z,91.60
